sensor_id;sensor_type;location;lat;lon;timestamp;P1;durP1;ratioP1;P2;durP2;ratioP2
4831;SDS011;2430;51.322;7.864;2023-08-21T00:00:11;12.57;;;7.00;;
4831;SDS011;2430;51.322;7.864;2023-08-21T00:02:38;8.40;;;5.20;;
4831;SDS011;2430;51.322;7.864;2023-08-21T00:05:04;6.57;;;4.47;;
4831;SDS011;2430;51.322;7.864;2023-08-21T00:07:30;8.03;;;5.47;;
4831;SDS011;2430;51.322;7.864;2023-08-21T00:09:57;13.40;;;5.27;;
4831;SDS011;2430;51.322;7.864;2023-08-21T00:12:23;6.27;;;5.20;;
4831;SDS011;2430;51.322;7.864;2023-08-21T00:14:49;7.30;;;6.17;;
4831;SDS011;2430;51.322;7.864;2023-08-21T00:17:17;9.40;;;6.93;;
4831;SDS011;2430;51.322;7.864;2023-08-21T00:19:43;12.50;;;8.03;;
4831;SDS011;2430;51.322;7.864;2023-08-21T00:22:09;11.20;;;8.87;;
4831;SDS011;2430;51.322;7.864;2023-08-21T00:24:36;12.60;;;8.57;;
4831;SDS011;2430;51.322;7.864;2023-08-21T00:27:02;11.53;;;8.30;;
4831;SDS011;2430;51.322;7.864;2023-08-21T00:29:28;11.90;;;8.27;;
4831;SDS011;2430;51.322;7.864;2023-08-21T00:31:55;15.30;;;7.10;;
4831;SDS011;2430;51.322;7.864;2023-08-21T00:34:22;11.83;;;7.70;;
4831;SDS011;2430;51.322;7.864;2023-08-21T00:36:48;14.33;;;8.10;;
4831;SDS011;2430;51.322;7.864;2023-08-21T00:39:15;9.07;;;7.90;;
4831;SDS011;2430;51.322;7.864;2023-08-21T00:41:41;12.33;;;7.63;;
4831;SDS011;2430;51.322;7.864;2023-08-21T00:44:08;13.13;;;8.03;;
4831;SDS011;2430;51.322;7.864;2023-08-21T00:46:34;12.60;;;6.97;;
4831;SDS011;2430;51.322;7.864;2023-08-21T00:49:00;11.40;;;8.33;;
4831;SDS011;2430;51.322;7.864;2023-08-21T00:51:28;14.50;;;8.07;;
4831;SDS011;2430;51.322;7.864;2023-08-21T00:53:55;10.77;;;8.20;;
4831;SDS011;2430;51.322;7.864;2023-08-21T00:56:21;12.93;;;9.17;;
4831;SDS011;2430;51.322;7.864;2023-08-21T00:58:47;10.73;;;8.47;;
4831;SDS011;2430;51.322;7.864;2023-08-21T01:01:14;14.83;;;9.43;;
4831;SDS011;2430;51.322;7.864;2023-08-21T01:03:41;10.33;;;9.20;;
4831;SDS011;2430;51.322;7.864;2023-08-21T01:06:08;13.00;;;8.10;;
4831;SDS011;2430;51.322;7.864;2023-08-21T01:08:38;16.10;;;8.70;;
4831;SDS011;2430;51.322;7.864;2023-08-21T01:11:08;16.20;;;9.80;;
4831;SDS011;2430;51.322;7.864;2023-08-21T01:13:41;10.30;;;8.10;;
4831;SDS011;2430;51.322;7.864;2023-08-21T01:16:10;12.70;;;7.70;;
4831;SDS011;2430;51.322;7.864;2023-08-21T01:18:37;16.07;;;8.47;;
4831;SDS011;2430;51.322;7.864;2023-08-21T01:21:04;11.90;;;9.20;;
4831;SDS011;2430;51.322;7.864;2023-08-21T01:23:33;11.50;;;9.23;;
4831;SDS011;2430;51.322;7.864;2023-08-21T01:25:59;16.33;;;9.20;;
4831;SDS011;2430;51.322;7.864;2023-08-21T01:28:25;13.43;;;8.40;;
4831;SDS011;2430;51.322;7.864;2023-08-21T01:30:54;14.30;;;8.77;;
4831;SDS011;2430;51.322;7.864;2023-08-21T01:33:21;11.93;;;9.17;;
4831;SDS011;2430;51.322;7.864;2023-08-21T01:35:48;10.57;;;8.43;;
4831;SDS011;2430;51.322;7.864;2023-08-21T01:38:15;11.00;;;8.43;;
4831;SDS011;2430;51.322;7.864;2023-08-21T01:40:46;13.20;;;10.13;;
4831;SDS011;2430;51.322;7.864;2023-08-21T01:43:13;9.60;;;8.60;;
4831;SDS011;2430;51.322;7.864;2023-08-21T01:45:39;15.90;;;9.57;;
4831;SDS011;2430;51.322;7.864;2023-08-21T01:48:06;12.57;;;9.40;;
4831;SDS011;2430;51.322;7.864;2023-08-21T01:50:33;13.17;;;9.10;;
4831;SDS011;2430;51.322;7.864;2023-08-21T01:52:59;10.70;;;9.57;;
4831;SDS011;2430;51.322;7.864;2023-08-21T01:55:26;19.43;;;9.40;;
4831;SDS011;2430;51.322;7.864;2023-08-21T01:57:54;10.20;;;8.93;;
4831;SDS011;2430;51.322;7.864;2023-08-21T02:00:21;10.83;;;8.53;;
4831;SDS011;2430;51.322;7.864;2023-08-21T02:02:48;10.00;;;8.80;;
4831;SDS011;2430;51.322;7.864;2023-08-21T02:05:14;11.70;;;8.90;;
4831;SDS011;2430;51.322;7.864;2023-08-21T02:07:41;10.43;;;8.20;;
4831;SDS011;2430;51.322;7.864;2023-08-21T02:10:08;12.93;;;8.67;;
4831;SDS011;2430;51.322;7.864;2023-08-21T02:12:34;12.97;;;9.10;;
4831;SDS011;2430;51.322;7.864;2023-08-21T02:15:02;9.23;;;8.07;;
4831;SDS011;2430;51.322;7.864;2023-08-21T02:17:29;11.43;;;7.90;;
4831;SDS011;2430;51.322;7.864;2023-08-21T02:19:56;11.10;;;7.77;;
4831;SDS011;2430;51.322;7.864;2023-08-21T02:22:22;15.53;;;8.27;;
4831;SDS011;2430;51.322;7.864;2023-08-21T02:24:49;10.67;;;8.10;;
4831;SDS011;2430;51.322;7.864;2023-08-21T02:27:15;9.40;;;7.80;;
4831;SDS011;2430;51.322;7.864;2023-08-21T02:29:42;17.60;;;8.80;;
4831;SDS011;2430;51.322;7.864;2023-08-21T02:32:10;11.93;;;8.60;;
4831;SDS011;2430;51.322;7.864;2023-08-21T02:34:36;9.37;;;8.47;;
4831;SDS011;2430;51.322;7.864;2023-08-21T02:37:04;12.00;;;8.93;;
4831;SDS011;2430;51.322;7.864;2023-08-21T02:39:31;11.30;;;8.63;;
4831;SDS011;2430;51.322;7.864;2023-08-21T02:41:57;13.80;;;8.50;;
4831;SDS011;2430;51.322;7.864;2023-08-21T02:44:24;14.40;;;9.63;;
4831;SDS011;2430;51.322;7.864;2023-08-21T02:46:51;11.80;;;8.63;;
4831;SDS011;2430;51.322;7.864;2023-08-21T02:49:19;13.57;;;8.40;;
4831;SDS011;2430;51.322;7.864;2023-08-21T02:51:45;16.47;;;8.37;;
4831;SDS011;2430;51.322;7.864;2023-08-21T02:54:12;13.27;;;8.83;;
4831;SDS011;2430;51.322;7.864;2023-08-21T02:56:39;11.13;;;9.50;;
4831;SDS011;2430;51.322;7.864;2023-08-21T02:59:05;10.10;;;9.00;;
4831;SDS011;2430;51.322;7.864;2023-08-21T03:01:32;10.57;;;8.03;;
4831;SDS011;2430;51.322;7.864;2023-08-21T03:04:00;8.83;;;7.93;;
4831;SDS011;2430;51.322;7.864;2023-08-21T03:06:28;9.50;;;8.50;;
4831;SDS011;2430;51.322;7.864;2023-08-21T03:08:55;12.33;;;8.83;;
4831;SDS011;2430;51.322;7.864;2023-08-21T03:11:21;17.57;;;9.10;;
4831;SDS011;2430;51.322;7.864;2023-08-21T03:13:48;12.43;;;8.33;;
4831;SDS011;2430;51.322;7.864;2023-08-21T03:16:15;11.27;;;7.87;;
4831;SDS011;2430;51.322;7.864;2023-08-21T03:18:53;13.60;;;8.63;;
4831;SDS011;2430;51.322;7.864;2023-08-21T03:21:20;10.20;;;7.67;;
4831;SDS011;2430;51.322;7.864;2023-08-21T03:23:49;13.47;;;7.50;;
4831;SDS011;2430;51.322;7.864;2023-08-21T03:26:17;11.97;;;7.93;;
4831;SDS011;2430;51.322;7.864;2023-08-21T03:28:43;10.63;;;7.37;;
4831;SDS011;2430;51.322;7.864;2023-08-21T03:31:10;7.43;;;6.60;;
4831;SDS011;2430;51.322;7.864;2023-08-21T03:33:36;9.40;;;6.40;;
4831;SDS011;2430;51.322;7.864;2023-08-21T03:36:03;10.97;;;7.70;;
4831;SDS011;2430;51.322;7.864;2023-08-21T03:38:30;8.77;;;7.70;;
4831;SDS011;2430;51.322;7.864;2023-08-21T03:40:58;23.23;;;8.47;;
4831;SDS011;2430;51.322;7.864;2023-08-21T03:43:24;8.30;;;7.00;;
4831;SDS011;2430;51.322;7.864;2023-08-21T03:45:51;9.80;;;7.60;;
4831;SDS011;2430;51.322;7.864;2023-08-21T03:48:18;12.13;;;7.43;;
4831;SDS011;2430;51.322;7.864;2023-08-21T03:50:44;7.07;;;6.40;;
4831;SDS011;2430;51.322;7.864;2023-08-21T03:53:11;14.53;;;7.50;;
4831;SDS011;2430;51.322;7.864;2023-08-21T03:55:37;8.87;;;6.90;;
4831;SDS011;2430;51.322;7.864;2023-08-21T03:58:05;9.33;;;7.70;;
4831;SDS011;2430;51.322;7.864;2023-08-21T04:00:32;18.27;;;7.10;;
4831;SDS011;2430;51.322;7.864;2023-08-21T04:02:58;9.00;;;6.70;;
4831;SDS011;2430;51.322;7.864;2023-08-21T04:05:26;6.27;;;5.67;;
4831;SDS011;2430;51.322;7.864;2023-08-21T04:07:54;7.33;;;6.20;;
4831;SDS011;2430;51.322;7.864;2023-08-21T04:10:20;9.53;;;6.67;;
4831;SDS011;2430;51.322;7.864;2023-08-21T04:12:47;9.23;;;6.77;;
4831;SDS011;2430;51.322;7.864;2023-08-21T04:15:15;9.67;;;6.40;;
4831;SDS011;2430;51.322;7.864;2023-08-21T04:17:41;7.57;;;6.57;;
4831;SDS011;2430;51.322;7.864;2023-08-21T04:20:14;8.10;;;6.60;;
4831;SDS011;2430;51.322;7.864;2023-08-21T04:22:41;11.23;;;6.73;;
4831;SDS011;2430;51.322;7.864;2023-08-21T04:25:09;8.03;;;7.10;;
4831;SDS011;2430;51.322;7.864;2023-08-21T04:27:36;8.10;;;7.00;;
4831;SDS011;2430;51.322;7.864;2023-08-21T04:30:03;9.83;;;7.80;;
4831;SDS011;2430;51.322;7.864;2023-08-21T04:32:31;14.23;;;8.13;;
4831;SDS011;2430;51.322;7.864;2023-08-21T04:34:57;13.57;;;7.53;;
4831;SDS011;2430;51.322;7.864;2023-08-21T04:37:24;9.53;;;7.07;;
4831;SDS011;2430;51.322;7.864;2023-08-21T04:39:50;8.30;;;7.37;;
4831;SDS011;2430;51.322;7.864;2023-08-21T04:42:17;10.37;;;7.60;;
4831;SDS011;2430;51.322;7.864;2023-08-21T04:44:44;11.80;;;7.63;;
4831;SDS011;2430;51.322;7.864;2023-08-21T04:47:19;8.83;;;7.70;;
4831;SDS011;2430;51.322;7.864;2023-08-21T04:49:50;12.10;;;8.63;;
4831;SDS011;2430;51.322;7.864;2023-08-21T04:52:17;11.60;;;8.30;;
4831;SDS011;2430;51.322;7.864;2023-08-21T04:54:44;11.47;;;7.60;;
4831;SDS011;2430;51.322;7.864;2023-08-21T04:57:10;12.43;;;8.33;;
4831;SDS011;2430;51.322;7.864;2023-08-21T04:59:37;9.27;;;7.30;;
4831;SDS011;2430;51.322;7.864;2023-08-21T05:02:05;11.23;;;7.80;;
4831;SDS011;2430;51.322;7.864;2023-08-21T05:04:32;11.83;;;8.60;;
4831;SDS011;2430;51.322;7.864;2023-08-21T05:07:00;12.37;;;7.70;;
4831;SDS011;2430;51.322;7.864;2023-08-21T05:09:26;10.13;;;7.57;;
4831;SDS011;2430;51.322;7.864;2023-08-21T05:11:53;9.27;;;8.10;;
4831;SDS011;2430;51.322;7.864;2023-08-21T05:14:20;12.43;;;8.63;;
4831;SDS011;2430;51.322;7.864;2023-08-21T05:16:47;15.07;;;8.17;;
4831;SDS011;2430;51.322;7.864;2023-08-21T05:19:14;14.80;;;8.60;;
4831;SDS011;2430;51.322;7.864;2023-08-21T05:21:41;12.30;;;8.20;;
4831;SDS011;2430;51.322;7.864;2023-08-21T05:24:08;9.40;;;8.33;;
4831;SDS011;2430;51.322;7.864;2023-08-21T05:26:35;9.40;;;8.03;;
4831;SDS011;2430;51.322;7.864;2023-08-21T05:29:02;11.30;;;7.70;;
4831;SDS011;2430;51.322;7.864;2023-08-21T05:31:28;11.07;;;8.50;;
4831;SDS011;2430;51.322;7.864;2023-08-21T05:33:54;13.10;;;9.00;;
4831;SDS011;2430;51.322;7.864;2023-08-21T05:36:20;12.57;;;8.80;;
4831;SDS011;2430;51.322;7.864;2023-08-21T05:38:47;10.90;;;8.00;;
4831;SDS011;2430;51.322;7.864;2023-08-21T05:41:15;11.50;;;8.70;;
4831;SDS011;2430;51.322;7.864;2023-08-21T05:43:41;10.50;;;7.70;;
4831;SDS011;2430;51.322;7.864;2023-08-21T05:46:07;13.63;;;8.73;;
4831;SDS011;2430;51.322;7.864;2023-08-21T05:48:33;11.17;;;8.43;;
4831;SDS011;2430;51.322;7.864;2023-08-21T05:51:00;10.63;;;8.20;;
4831;SDS011;2430;51.322;7.864;2023-08-21T05:53:29;12.00;;;9.33;;
4831;SDS011;2430;51.322;7.864;2023-08-21T05:55:55;10.73;;;9.10;;
4831;SDS011;2430;51.322;7.864;2023-08-21T05:58:23;13.63;;;8.40;;
4831;SDS011;2430;51.322;7.864;2023-08-21T06:00:54;16.00;;;9.30;;
4831;SDS011;2430;51.322;7.864;2023-08-21T06:03:20;11.47;;;7.47;;
4831;SDS011;2430;51.322;7.864;2023-08-21T06:05:47;10.63;;;8.33;;
4831;SDS011;2430;51.322;7.864;2023-08-21T06:08:13;16.00;;;8.67;;
4831;SDS011;2430;51.322;7.864;2023-08-21T06:10:39;11.13;;;7.77;;
4831;SDS011;2430;51.322;7.864;2023-08-21T06:13:06;8.37;;;7.43;;
4831;SDS011;2430;51.322;7.864;2023-08-21T06:15:33;9.27;;;8.10;;
4831;SDS011;2430;51.322;7.864;2023-08-21T06:17:59;9.97;;;8.37;;
4831;SDS011;2430;51.322;7.864;2023-08-21T06:20:26;13.43;;;9.47;;
4831;SDS011;2430;51.322;7.864;2023-08-21T06:22:52;12.07;;;8.90;;
4831;SDS011;2430;51.322;7.864;2023-08-21T06:25:19;10.50;;;9.40;;
4831;SDS011;2430;51.322;7.864;2023-08-21T06:27:46;12.80;;;9.90;;
4831;SDS011;2430;51.322;7.864;2023-08-21T06:30:12;14.63;;;8.60;;
4831;SDS011;2430;51.322;7.864;2023-08-21T06:32:43;16.73;;;9.70;;
4831;SDS011;2430;51.322;7.864;2023-08-21T06:35:09;10.60;;;8.83;;
4831;SDS011;2430;51.322;7.864;2023-08-21T06:37:34;11.53;;;8.00;;
4831;SDS011;2430;51.322;7.864;2023-08-21T06:40:01;10.63;;;8.80;;
4831;SDS011;2430;51.322;7.864;2023-08-21T06:42:27;8.87;;;7.23;;
4831;SDS011;2430;51.322;7.864;2023-08-21T06:44:53;15.60;;;7.93;;
4831;SDS011;2430;51.322;7.864;2023-08-21T06:47:19;11.13;;;7.73;;
4831;SDS011;2430;51.322;7.864;2023-08-21T06:49:47;7.90;;;6.43;;
4831;SDS011;2430;51.322;7.864;2023-08-21T06:52:13;10.13;;;8.10;;
4831;SDS011;2430;51.322;7.864;2023-08-21T06:54:40;9.70;;;7.20;;
4831;SDS011;2430;51.322;7.864;2023-08-21T06:57:06;8.70;;;6.70;;
4831;SDS011;2430;51.322;7.864;2023-08-21T06:59:32;9.40;;;6.90;;
4831;SDS011;2430;51.322;7.864;2023-08-21T07:02:00;8.30;;;6.17;;
4831;SDS011;2430;51.322;7.864;2023-08-21T07:04:27;8.80;;;6.47;;
4831;SDS011;2430;51.322;7.864;2023-08-21T07:06:55;9.00;;;6.50;;
4831;SDS011;2430;51.322;7.864;2023-08-21T07:09:21;11.13;;;7.50;;
4831;SDS011;2430;51.322;7.864;2023-08-21T07:11:47;10.70;;;7.10;;
4831;SDS011;2430;51.322;7.864;2023-08-21T07:14:14;10.17;;;7.23;;
4831;SDS011;2430;51.322;7.864;2023-08-21T07:16:42;8.67;;;7.33;;
4831;SDS011;2430;51.322;7.864;2023-08-21T07:19:08;9.87;;;7.07;;
4831;SDS011;2430;51.322;7.864;2023-08-21T07:21:34;10.67;;;7.17;;
4831;SDS011;2430;51.322;7.864;2023-08-21T07:24:04;9.37;;;7.27;;
4831;SDS011;2430;51.322;7.864;2023-08-21T07:26:31;7.83;;;7.03;;
4831;SDS011;2430;51.322;7.864;2023-08-21T07:28:57;8.37;;;6.57;;
4831;SDS011;2430;51.322;7.864;2023-08-21T07:31:23;10.83;;;7.90;;
4831;SDS011;2430;51.322;7.864;2023-08-21T07:33:49;8.83;;;7.47;;
4831;SDS011;2430;51.322;7.864;2023-08-21T07:36:16;10.53;;;6.80;;
4831;SDS011;2430;51.322;7.864;2023-08-21T07:38:43;14.93;;;6.93;;
4831;SDS011;2430;51.322;7.864;2023-08-21T07:41:11;11.80;;;6.40;;
4831;SDS011;2430;51.322;7.864;2023-08-21T07:43:39;10.20;;;7.30;;
4831;SDS011;2430;51.322;7.864;2023-08-21T07:46:06;12.53;;;6.20;;
4831;SDS011;2430;51.322;7.864;2023-08-21T07:48:32;8.80;;;6.10;;
4831;SDS011;2430;51.322;7.864;2023-08-21T07:50:59;6.47;;;5.83;;
4831;SDS011;2430;51.322;7.864;2023-08-21T07:53:25;9.03;;;5.97;;
4831;SDS011;2430;51.322;7.864;2023-08-21T07:55:52;11.60;;;4.37;;
4831;SDS011;2430;51.322;7.864;2023-08-21T07:58:19;11.30;;;4.67;;
4831;SDS011;2430;51.322;7.864;2023-08-21T08:00:46;5.43;;;4.13;;
4831;SDS011;2430;51.322;7.864;2023-08-21T08:03:13;10.60;;;4.83;;
4831;SDS011;2430;51.322;7.864;2023-08-21T08:05:40;12.63;;;4.50;;
4831;SDS011;2430;51.322;7.864;2023-08-21T08:08:06;5.60;;;4.17;;
4831;SDS011;2430;51.322;7.864;2023-08-21T08:10:33;6.90;;;4.50;;
4831;SDS011;2430;51.322;7.864;2023-08-21T08:12:59;6.10;;;4.20;;
4831;SDS011;2430;51.322;7.864;2023-08-21T08:15:26;4.70;;;4.23;;
4831;SDS011;2430;51.322;7.864;2023-08-21T08:17:53;5.57;;;4.57;;
4831;SDS011;2430;51.322;7.864;2023-08-21T08:20:20;7.47;;;4.33;;
4831;SDS011;2430;51.322;7.864;2023-08-21T08:22:46;6.30;;;3.77;;
4831;SDS011;2430;51.322;7.864;2023-08-21T08:25:12;6.37;;;3.67;;
4831;SDS011;2430;51.322;7.864;2023-08-21T08:27:39;6.87;;;3.97;;
4831;SDS011;2430;51.322;7.864;2023-08-21T08:30:06;4.47;;;3.80;;
4831;SDS011;2430;51.322;7.864;2023-08-21T08:32:34;6.13;;;4.10;;
4831;SDS011;2430;51.322;7.864;2023-08-21T08:35:01;7.90;;;4.10;;
4831;SDS011;2430;51.322;7.864;2023-08-21T08:37:27;4.20;;;3.60;;
4831;SDS011;2430;51.322;7.864;2023-08-21T08:39:53;6.10;;;4.10;;
4831;SDS011;2430;51.322;7.864;2023-08-21T08:42:20;6.10;;;4.03;;
4831;SDS011;2430;51.322;7.864;2023-08-21T08:44:46;5.53;;;3.77;;
4831;SDS011;2430;51.322;7.864;2023-08-21T08:47:13;9.47;;;3.70;;
4831;SDS011;2430;51.322;7.864;2023-08-21T08:49:40;8.17;;;4.10;;
4831;SDS011;2430;51.322;7.864;2023-08-21T08:52:07;11.80;;;4.60;;
4831;SDS011;2430;51.322;7.864;2023-08-21T08:54:33;4.30;;;3.90;;
4831;SDS011;2430;51.322;7.864;2023-08-21T08:57:01;4.90;;;3.67;;
4831;SDS011;2430;51.322;7.864;2023-08-21T08:59:29;7.17;;;3.90;;
4831;SDS011;2430;51.322;7.864;2023-08-21T09:01:55;5.30;;;4.27;;
4831;SDS011;2430;51.322;7.864;2023-08-21T09:04:22;15.07;;;4.00;;
4831;SDS011;2430;51.322;7.864;2023-08-21T09:06:49;7.77;;;4.03;;
4831;SDS011;2430;51.322;7.864;2023-08-21T09:09:15;6.90;;;4.70;;
4831;SDS011;2430;51.322;7.864;2023-08-21T09:11:42;7.10;;;4.30;;
4831;SDS011;2430;51.322;7.864;2023-08-21T09:14:08;6.83;;;3.63;;
4831;SDS011;2430;51.322;7.864;2023-08-21T09:16:35;5.30;;;3.77;;
4831;SDS011;2430;51.322;7.864;2023-08-21T09:19:02;7.80;;;3.83;;
4831;SDS011;2430;51.322;7.864;2023-08-21T09:21:28;4.20;;;3.60;;
4831;SDS011;2430;51.322;7.864;2023-08-21T09:23:59;15.30;;;4.33;;
4831;SDS011;2430;51.322;7.864;2023-08-21T09:26:29;4.40;;;4.00;;
4831;SDS011;2430;51.322;7.864;2023-08-21T09:28:56;5.53;;;3.67;;
4831;SDS011;2430;51.322;7.864;2023-08-21T09:31:29;4.57;;;4.13;;
4831;SDS011;2430;51.322;7.864;2023-08-21T09:33:55;7.73;;;4.50;;
4831;SDS011;2430;51.322;7.864;2023-08-21T09:36:23;4.83;;;3.43;;
4831;SDS011;2430;51.322;7.864;2023-08-21T09:38:50;6.63;;;4.13;;
4831;SDS011;2430;51.322;7.864;2023-08-21T09:41:20;8.53;;;4.07;;
4831;SDS011;2430;51.322;7.864;2023-08-21T09:43:46;3.80;;;3.43;;
4831;SDS011;2430;51.322;7.864;2023-08-21T09:46:13;9.03;;;4.00;;
4831;SDS011;2430;51.322;7.864;2023-08-21T09:48:41;5.37;;;3.43;;
4831;SDS011;2430;51.322;7.864;2023-08-21T09:51:07;9.93;;;4.20;;
4831;SDS011;2430;51.322;7.864;2023-08-21T09:53:34;4.93;;;4.17;;
4831;SDS011;2430;51.322;7.864;2023-08-21T09:56:00;6.87;;;3.73;;
4831;SDS011;2430;51.322;7.864;2023-08-21T09:58:30;8.63;;;4.80;;
4831;SDS011;2430;51.322;7.864;2023-08-21T10:00:57;5.53;;;4.53;;
4831;SDS011;2430;51.322;7.864;2023-08-21T10:03:25;6.87;;;4.80;;
4831;SDS011;2430;51.322;7.864;2023-08-21T10:05:51;9.33;;;4.13;;
4831;SDS011;2430;51.322;7.864;2023-08-21T10:08:21;11.80;;;5.20;;
4831;SDS011;2430;51.322;7.864;2023-08-21T10:10:49;5.40;;;4.70;;
4831;SDS011;2430;51.322;7.864;2023-08-21T10:13:15;4.83;;;4.40;;
4831;SDS011;2430;51.322;7.864;2023-08-21T10:15:43;8.50;;;4.53;;
4831;SDS011;2430;51.322;7.864;2023-08-21T10:18:19;5.83;;;4.60;;
4831;SDS011;2430;51.322;7.864;2023-08-21T10:20:46;5.30;;;4.37;;
4831;SDS011;2430;51.322;7.864;2023-08-21T10:23:23;4.80;;;4.10;;
4831;SDS011;2430;51.322;7.864;2023-08-21T10:25:49;5.00;;;4.00;;
4831;SDS011;2430;51.322;7.864;2023-08-21T10:28:19;4.93;;;4.13;;
4831;SDS011;2430;51.322;7.864;2023-08-21T10:30:47;5.80;;;3.83;;
4831;SDS011;2430;51.322;7.864;2023-08-21T10:33:13;4.70;;;4.00;;
4831;SDS011;2430;51.322;7.864;2023-08-21T10:35:40;4.27;;;3.87;;
4831;SDS011;2430;51.322;7.864;2023-08-21T10:38:07;10.10;;;3.50;;
4831;SDS011;2430;51.322;7.864;2023-08-21T10:40:33;5.30;;;3.50;;
4831;SDS011;2430;51.322;7.864;2023-08-21T10:43:00;7.77;;;3.30;;
4831;SDS011;2430;51.322;7.864;2023-08-21T10:45:27;5.57;;;3.47;;
4831;SDS011;2430;51.322;7.864;2023-08-21T10:47:57;5.80;;;3.87;;
4831;SDS011;2430;51.322;7.864;2023-08-21T10:50:23;7.97;;;4.20;;
4831;SDS011;2430;51.322;7.864;2023-08-21T10:52:50;5.37;;;4.37;;
4831;SDS011;2430;51.322;7.864;2023-08-21T10:55:17;5.67;;;3.50;;
4831;SDS011;2430;51.322;7.864;2023-08-21T10:57:45;8.50;;;3.23;;
4831;SDS011;2430;51.322;7.864;2023-08-21T11:00:13;4.63;;;3.53;;
4831;SDS011;2430;51.322;7.864;2023-08-21T11:02:40;5.97;;;4.07;;
4831;SDS011;2430;51.322;7.864;2023-08-21T11:05:09;10.50;;;3.50;;
4831;SDS011;2430;51.322;7.864;2023-08-21T11:07:36;5.35;;;3.20;;
4831;SDS011;2430;51.322;7.864;2023-08-21T11:10:03;6.78;;;3.58;;
4831;SDS011;2430;51.322;7.864;2023-08-21T11:12:30;4.35;;;2.97;;
4831;SDS011;2430;51.322;7.864;2023-08-21T11:14:56;6.63;;;3.77;;
4831;SDS011;2430;51.322;7.864;2023-08-21T11:17:23;5.90;;;4.00;;
4831;SDS011;2430;51.322;7.864;2023-08-21T11:19:49;5.20;;;3.63;;
4831;SDS011;2430;51.322;7.864;2023-08-21T11:22:18;4.07;;;3.30;;
4831;SDS011;2430;51.322;7.864;2023-08-21T11:24:45;5.20;;;3.30;;
4831;SDS011;2430;51.322;7.864;2023-08-21T11:27:12;5.40;;;3.47;;
4831;SDS011;2430;51.322;7.864;2023-08-21T11:29:39;26.33;;;4.30;;
4831;SDS011;2430;51.322;7.864;2023-08-21T11:32:09;8.10;;;4.20;;
4831;SDS011;2430;51.322;7.864;2023-08-21T11:34:38;9.90;;;4.13;;
4831;SDS011;2430;51.322;7.864;2023-08-21T11:37:04;5.40;;;4.13;;
4831;SDS011;2430;51.322;7.864;2023-08-21T11:39:45;7.47;;;4.07;;
4831;SDS011;2430;51.322;7.864;2023-08-21T11:42:12;5.80;;;4.13;;
4831;SDS011;2430;51.322;7.864;2023-08-21T11:44:45;11.13;;;4.33;;
4831;SDS011;2430;51.322;7.864;2023-08-21T11:47:12;9.20;;;3.77;;
4831;SDS011;2430;51.322;7.864;2023-08-21T11:49:40;7.13;;;3.70;;
4831;SDS011;2430;51.322;7.864;2023-08-21T11:52:07;7.70;;;3.80;;
4831;SDS011;2430;51.322;7.864;2023-08-21T11:54:34;6.50;;;3.40;;
4831;SDS011;2430;51.322;7.864;2023-08-21T11:57:05;4.17;;;3.30;;
4831;SDS011;2430;51.322;7.864;2023-08-21T11:59:32;5.80;;;3.60;;
4831;SDS011;2430;51.322;7.864;2023-08-21T12:01:58;10.50;;;3.60;;
4831;SDS011;2430;51.322;7.864;2023-08-21T12:04:25;3.53;;;3.23;;
4831;SDS011;2430;51.322;7.864;2023-08-21T12:06:52;5.37;;;3.30;;
4831;SDS011;2430;51.322;7.864;2023-08-21T12:09:19;5.03;;;3.63;;
4831;SDS011;2430;51.322;7.864;2023-08-21T12:11:44;7.17;;;4.17;;
4831;SDS011;2430;51.322;7.864;2023-08-21T12:14:12;8.60;;;3.70;;
4831;SDS011;2430;51.322;7.864;2023-08-21T12:16:38;4.23;;;3.83;;
4831;SDS011;2430;51.322;7.864;2023-08-21T12:19:05;7.60;;;4.17;;
4831;SDS011;2430;51.322;7.864;2023-08-21T12:21:34;4.50;;;3.40;;
4831;SDS011;2430;51.322;7.864;2023-08-21T12:24:03;6.20;;;3.90;;
4831;SDS011;2430;51.322;7.864;2023-08-21T12:26:30;8.93;;;3.70;;
4831;SDS011;2430;51.322;7.864;2023-08-21T12:28:56;12.57;;;3.73;;
4831;SDS011;2430;51.322;7.864;2023-08-21T12:31:23;7.97;;;3.70;;
4831;SDS011;2430;51.322;7.864;2023-08-21T12:33:50;6.00;;;3.40;;
4831;SDS011;2430;51.322;7.864;2023-08-21T12:36:16;7.33;;;4.13;;
4831;SDS011;2430;51.322;7.864;2023-08-21T12:38:42;6.77;;;3.03;;
4831;SDS011;2430;51.322;7.864;2023-08-21T12:41:09;7.13;;;4.23;;
4831;SDS011;2430;51.322;7.864;2023-08-21T12:43:35;6.90;;;3.47;;
4831;SDS011;2430;51.322;7.864;2023-08-21T12:46:01;6.93;;;3.40;;
4831;SDS011;2430;51.322;7.864;2023-08-21T12:48:29;8.77;;;4.00;;
4831;SDS011;2430;51.322;7.864;2023-08-21T12:50:55;9.87;;;3.70;;
4831;SDS011;2430;51.322;7.864;2023-08-21T12:53:21;4.37;;;3.20;;
4831;SDS011;2430;51.322;7.864;2023-08-21T12:55:48;6.33;;;3.07;;
4831;SDS011;2430;51.322;7.864;2023-08-21T12:58:14;17.10;;;3.50;;
4831;SDS011;2430;51.322;7.864;2023-08-21T13:00:40;4.43;;;2.90;;
4831;SDS011;2430;51.322;7.864;2023-08-21T13:03:07;5.10;;;3.10;;
4831;SDS011;2430;51.322;7.864;2023-08-21T13:05:35;3.53;;;2.90;;
4831;SDS011;2430;51.322;7.864;2023-08-21T13:08:01;4.90;;;3.33;;
4831;SDS011;2430;51.322;7.864;2023-08-21T13:10:27;4.63;;;3.50;;
4831;SDS011;2430;51.322;7.864;2023-08-21T13:12:54;5.90;;;2.90;;
4831;SDS011;2430;51.322;7.864;2023-08-21T13:15:20;4.63;;;2.70;;
4831;SDS011;2430;51.322;7.864;2023-08-21T13:17:46;7.23;;;3.70;;
4831;SDS011;2430;51.322;7.864;2023-08-21T13:20:14;5.10;;;3.03;;
4831;SDS011;2430;51.322;7.864;2023-08-21T13:22:45;13.30;;;3.10;;
4831;SDS011;2430;51.322;7.864;2023-08-21T13:25:12;4.00;;;2.63;;
4831;SDS011;2430;51.322;7.864;2023-08-21T13:27:38;4.13;;;3.00;;
4831;SDS011;2430;51.322;7.864;2023-08-21T13:30:05;5.63;;;2.93;;
4831;SDS011;2430;51.322;7.864;2023-08-21T13:32:32;4.47;;;2.93;;
4831;SDS011;2430;51.322;7.864;2023-08-21T13:34:59;5.10;;;3.50;;
4831;SDS011;2430;51.322;7.864;2023-08-21T13:37:25;4.20;;;2.80;;
4831;SDS011;2430;51.322;7.864;2023-08-21T13:39:53;3.67;;;2.40;;
4831;SDS011;2430;51.322;7.864;2023-08-21T13:42:24;3.40;;;2.73;;
4831;SDS011;2430;51.322;7.864;2023-08-21T13:44:50;6.43;;;3.20;;
4831;SDS011;2430;51.322;7.864;2023-08-21T13:47:18;7.83;;;3.50;;
4831;SDS011;2430;51.322;7.864;2023-08-21T13:49:44;5.63;;;3.40;;
4831;SDS011;2430;51.322;7.864;2023-08-21T13:52:10;4.10;;;2.77;;
4831;SDS011;2430;51.322;7.864;2023-08-21T13:54:37;6.90;;;3.07;;
4831;SDS011;2430;51.322;7.864;2023-08-21T13:57:04;4.30;;;3.20;;
4831;SDS011;2430;51.322;7.864;2023-08-21T13:59:31;8.60;;;2.60;;
4831;SDS011;2430;51.322;7.864;2023-08-21T14:01:57;6.10;;;3.43;;
4831;SDS011;2430;51.322;7.864;2023-08-21T14:04:23;5.10;;;2.93;;
4831;SDS011;2430;51.322;7.864;2023-08-21T14:06:50;4.33;;;2.80;;
4831;SDS011;2430;51.322;7.864;2023-08-21T14:09:16;8.23;;;3.40;;
4831;SDS011;2430;51.322;7.864;2023-08-21T14:11:42;4.50;;;3.17;;
4831;SDS011;2430;51.322;7.864;2023-08-21T14:14:10;6.20;;;3.47;;
4831;SDS011;2430;51.322;7.864;2023-08-21T14:16:36;4.57;;;2.77;;
4831;SDS011;2430;51.322;7.864;2023-08-21T14:19:02;3.53;;;3.00;;
4831;SDS011;2430;51.322;7.864;2023-08-21T14:21:29;11.50;;;3.47;;
4831;SDS011;2430;51.322;7.864;2023-08-21T14:23:55;5.50;;;3.60;;
4831;SDS011;2430;51.322;7.864;2023-08-21T14:26:22;8.97;;;3.27;;
4831;SDS011;2430;51.322;7.864;2023-08-21T14:28:49;3.83;;;2.90;;
4831;SDS011;2430;51.322;7.864;2023-08-21T14:31:17;7.37;;;3.00;;
4831;SDS011;2430;51.322;7.864;2023-08-21T14:33:43;4.83;;;3.50;;
4831;SDS011;2430;51.322;7.864;2023-08-21T14:36:10;5.43;;;3.90;;
4831;SDS011;2430;51.322;7.864;2023-08-21T14:38:36;6.17;;;3.40;;
4831;SDS011;2430;51.322;7.864;2023-08-21T14:41:02;4.87;;;2.90;;
4831;SDS011;2430;51.322;7.864;2023-08-21T14:43:29;7.70;;;3.33;;
4831;SDS011;2430;51.322;7.864;2023-08-21T14:45:58;7.43;;;3.17;;
4831;SDS011;2430;51.322;7.864;2023-08-21T14:48:26;5.23;;;2.90;;
4831;SDS011;2430;51.322;7.864;2023-08-21T14:50:52;7.23;;;2.83;;
4831;SDS011;2430;51.322;7.864;2023-08-21T14:53:18;5.20;;;3.30;;
4831;SDS011;2430;51.322;7.864;2023-08-21T14:55:44;4.97;;;3.20;;
4831;SDS011;2430;51.322;7.864;2023-08-21T14:58:11;4.73;;;3.17;;
4831;SDS011;2430;51.322;7.864;2023-08-21T15:00:37;12.00;;;3.20;;
4831;SDS011;2430;51.322;7.864;2023-08-21T15:03:05;5.90;;;2.87;;
4831;SDS011;2430;51.322;7.864;2023-08-21T15:05:33;6.77;;;3.40;;
4831;SDS011;2430;51.322;7.864;2023-08-21T15:07:59;7.63;;;3.40;;